Wooster, OH (44691)

10:29 PM EDT on August 28, 2016 (GMT -0400)
Forest Green | | Change Station

Elev 1083 ft 40.82 °N, 81.94 °W | Updated 31 seconds ago

Fog
Fog
69.1 °F
Feels Like 69.1 °F
N
0.0
Wind Variable Wind from NNW
Gusts 0.0 mph

Today
High -- | Low -- °F
--% Chance of Precip.
Yesterday
High -- | Low -- °F
Precip. -- in
Pressure 30.22 in
Visibility 0.5 miles
Clouds Clear
Dew Point 68 °F
Humidity 98%
Rainfall 0.25 in
Snow Depth Not available.
6:51 AM 8:05 PM
Waning Crescent, 11% visible
SPECI KBJJ 290214Z AUTO 00000KT 1/2SM FG CLR 19/18 A3022 RMK AO2 T01890183
Pressure 30.22 in
Visibility 0.5 miles
Clouds Clear
Dew Point 68 °F
Humidity 98%
Rainfall 0.25 in
Snow Depth Not available.
6:51 AM 8:05 PM
Waning Crescent, 11% visible
SPECI KBJJ 290214Z AUTO 00000KT 1/2SM FG CLR 19/18 A3022 RMK AO2 T01890183

10-Day Weather Forecast

Almanac

Astronomy

Aug. 28, 2016 Rise Set
Actual Time
Civil Twilight
Nautical Twilight
Astronomical Twilight
Moon
Length of Visible Light
Length of Day
Tomorrow will be .
, % of the Moon is Illuminated

Today's Extremes

State Highs State Lows

Community

WunderPhotos

Upload Photos

1,935,773 photos uploaded!

WunderBlog® & News

Nearby

Air Quality

  Air Quality AQ Index Pollutant
Not available.

Snow Depth

Station Depth Elevation

Earthquake Activity

City Distance Mag. Time & Date
Minimum magnitude displayed is 2.5.

Coastal Water Temperatures

Place Temperature

Stations

Nearby Weather Stations

Station Location Temp. Windchill Dew Point Humidity Wind Precip. Elev Updated Type
                   

Watches & Warnings

There are currently no watches in effect.